sensor_id;sensor_type;location;lat;lon;timestamp;temperature;humidity
66576;SHT31;53428;47.686;16.584;2023-04-25T00:00:50;11.30;70.32
66576;SHT31;53428;47.686;16.584;2023-04-25T00:05:51;11.29;70.13
66576;SHT31;53428;47.686;16.584;2023-04-25T00:10:51;11.29;70.52
66576;SHT31;53428;47.686;16.584;2023-04-25T00:15:50;11.29;70.66
66576;SHT31;53428;47.686;16.584;2023-04-25T00:20:51;11.31;70.64
66576;SHT31;53428;47.686;16.584;2023-04-25T00:25:50;11.37;70.19
66576;SHT31;53428;47.686;16.584;2023-04-25T00:30:50;11.37;69.51
66576;SHT31;53428;47.686;16.584;2023-04-25T00:35:49;11.40;68.91
66576;SHT31;53428;47.686;16.584;2023-04-25T00:40:48;11.41;68.42
66576;SHT31;53428;47.686;16.584;2023-04-25T00:45:48;11.40;68.51
66576;SHT31;53428;47.686;16.584;2023-04-25T00:50:57;11.40;68.67
66576;SHT31;53428;47.686;16.584;2023-04-25T00:55:57;11.33;69.17
66576;SHT31;53428;47.686;16.584;2023-04-25T01:00:57;11.26;69.62
66576;SHT31;53428;47.686;16.584;2023-04-25T01:05:56;11.18;70.14
66576;SHT31;53428;47.686;16.584;2023-04-25T01:10:56;11.12;70.55
66576;SHT31;53428;47.686;16.584;2023-04-25T01:15:55;11.00;71.40
66576;SHT31;53428;47.686;16.584;2023-04-25T01:20:55;10.99;71.63
66576;SHT31;53428;47.686;16.584;2023-04-25T01:25:54;10.98;71.35
66576;SHT31;53428;47.686;16.584;2023-04-25T01:30:54;11.02;71.35
66576;SHT31;53428;47.686;16.584;2023-04-25T01:35:53;10.95;71.36
66576;SHT31;53428;47.686;16.584;2023-04-25T01:40:53;10.89;71.84
66576;SHT31;53428;47.686;16.584;2023-04-25T01:45:54;10.88;72.01
66576;SHT31;53428;47.686;16.584;2023-04-25T01:50:53;10.78;72.48
66576;SHT31;53428;47.686;16.584;2023-04-25T01:55:52;10.73;72.64
66576;SHT31;53428;47.686;16.584;2023-04-25T02:00:52;10.81;72.38
66576;SHT31;53428;47.686;16.584;2023-04-25T02:05:51;10.79;72.14
66576;SHT31;53428;47.686;16.584;2023-04-25T02:10:50;10.76;72.26
66576;SHT31;53428;47.686;16.584;2023-04-25T02:15:49;10.75;72.39
66576;SHT31;53428;47.686;16.584;2023-04-25T02:20:49;10.65;72.33
66576;SHT31;53428;47.686;16.584;2023-04-25T02:25:48;10.64;72.44
66576;SHT31;53428;47.686;16.584;2023-04-25T02:30:48;10.58;72.38
66576;SHT31;53428;47.686;16.584;2023-04-25T02:35:47;10.47;72.84
66576;SHT31;53428;47.686;16.584;2023-04-25T02:40:47;10.51;72.54
66576;SHT31;53428;47.686;16.584;2023-04-25T02:45:46;10.44;72.70
66576;SHT31;53428;47.686;16.584;2023-04-25T02:50:45;10.37;72.86
66576;SHT31;53428;47.686;16.584;2023-04-25T02:55:45;10.43;71.83
66576;SHT31;53428;47.686;16.584;2023-04-25T03:00:44;10.43;71.45
66576;SHT31;53428;47.686;16.584;2023-04-25T03:05:44;10.43;71.24
66576;SHT31;53428;47.686;16.584;2023-04-25T03:10:45;10.41;71.06
66576;SHT31;53428;47.686;16.584;2023-04-25T03:15:44;10.31;71.49
66576;SHT31;53428;47.686;16.584;2023-04-25T03:20:43;10.23;71.83
66576;SHT31;53428;47.686;16.584;2023-04-25T03:25:43;10.12;72.32
66576;SHT31;53428;47.686;16.584;2023-04-25T03:30:42;10.02;72.83
66576;SHT31;53428;47.686;16.584;2023-04-25T03:35:41;9.93;73.32
66576;SHT31;53428;47.686;16.584;2023-04-25T03:40:41;9.76;74.02
66576;SHT31;53428;47.686;16.584;2023-04-25T03:45:40;9.59;74.85
66576;SHT31;53428;47.686;16.584;2023-04-25T03:50:39;9.59;74.74
66576;SHT31;53428;47.686;16.584;2023-04-25T03:55:39;9.55;74.75
66576;SHT31;53428;47.686;16.584;2023-04-25T04:00:38;9.55;74.65
66576;SHT31;53428;47.686;16.584;2023-04-25T04:05:38;9.62;74.26
66576;SHT31;53428;47.686;16.584;2023-04-25T04:10:39;9.61;74.20
66576;SHT31;53428;47.686;16.584;2023-04-25T04:15:38;9.58;74.47
66576;SHT31;53428;47.686;16.584;2023-04-25T04:20:38;9.58;74.44
66576;SHT31;53428;47.686;16.584;2023-04-25T04:25:37;9.56;74.46
66576;SHT31;53428;47.686;16.584;2023-04-25T04:30:36;9.55;74.33
66576;SHT31;53428;47.686;16.584;2023-04-25T04:35:36;9.47;74.87
66576;SHT31;53428;47.686;16.584;2023-04-25T04:40:35;9.37;75.03
66576;SHT31;53428;47.686;16.584;2023-04-25T04:45:35;9.27;75.33
66576;SHT31;53428;47.686;16.584;2023-04-25T04:50:34;9.44;74.53
66576;SHT31;53428;47.686;16.584;2023-04-25T04:55:34;9.52;73.94
66576;SHT31;53428;47.686;16.584;2023-04-25T05:00:33;9.54;74.03
66576;SHT31;53428;47.686;16.584;2023-04-25T05:05:33;9.56;74.14
66576;SHT31;53428;47.686;16.584;2023-04-25T05:10:32;9.56;74.00
66576;SHT31;53428;47.686;16.584;2023-04-25T05:15:31;9.54;74.37
66576;SHT31;53428;47.686;16.584;2023-04-25T05:20:31;9.56;74.31
66576;SHT31;53428;47.686;16.584;2023-04-25T05:25:30;9.59;74.13
66576;SHT31;53428;47.686;16.584;2023-04-25T05:30:29;9.58;74.34
66576;SHT31;53428;47.686;16.584;2023-04-25T05:35:28;9.56;74.62
66576;SHT31;53428;47.686;16.584;2023-04-25T05:40:27;9.45;75.36
66576;SHT31;53428;47.686;16.584;2023-04-25T05:45:27;9.37;76.08
66576;SHT31;53428;47.686;16.584;2023-04-25T05:50:26;9.37;76.36
66576;SHT31;53428;47.686;16.584;2023-04-25T05:55:25;9.55;76.26
66576;SHT31;53428;47.686;16.584;2023-04-25T06:00:24;9.79;76.02
66576;SHT31;53428;47.686;16.584;2023-04-25T06:05:24;9.97;75.86
66576;SHT31;53428;47.686;16.584;2023-04-25T06:10:23;10.23;75.43
66576;SHT31;53428;47.686;16.584;2023-04-25T06:15:23;10.47;74.04
66576;SHT31;53428;47.686;16.584;2023-04-25T06:20:22;10.68;73.49
66576;SHT31;53428;47.686;16.584;2023-04-25T06:25:23;10.86;73.26
66576;SHT31;53428;47.686;16.584;2023-04-25T06:30:22;11.12;72.98
66576;SHT31;53428;47.686;16.584;2023-04-25T06:35:24;11.40;72.53
66576;SHT31;53428;47.686;16.584;2023-04-25T06:40:23;11.67;71.86
66576;SHT31;53428;47.686;16.584;2023-04-25T06:45:22;11.63;69.49
66576;SHT31;53428;47.686;16.584;2023-04-25T06:50:22;11.77;69.54
66576;SHT31;53428;47.686;16.584;2023-04-25T06:55:21;11.88;69.04
66576;SHT31;53428;47.686;16.584;2023-04-25T07:00:20;12.21;68.59
66576;SHT31;53428;47.686;16.584;2023-04-25T07:05:19;12.26;65.96
66576;SHT31;53428;47.686;16.584;2023-04-25T07:10:19;12.44;64.39
66576;SHT31;53428;47.686;16.584;2023-04-25T07:15:20;12.46;63.29
66576;SHT31;53428;47.686;16.584;2023-04-25T07:20:19;12.65;63.10
66576;SHT31;53428;47.686;16.584;2023-04-25T07:25:19;12.73;63.01
66576;SHT31;53428;47.686;16.584;2023-04-25T07:30:18;12.87;62.10
66576;SHT31;53428;47.686;16.584;2023-04-25T07:35:18;12.84;61.81
66576;SHT31;53428;47.686;16.584;2023-04-25T07:40:17;12.94;62.31
66576;SHT31;53428;47.686;16.584;2023-04-25T07:45:16;13.01;63.31
66576;SHT31;53428;47.686;16.584;2023-04-25T07:50:15;13.34;63.05
66576;SHT31;53428;47.686;16.584;2023-04-25T07:55:15;13.39;62.63
66576;SHT31;53428;47.686;16.584;2023-04-25T08:00:14;13.42;62.03
66576;SHT31;53428;47.686;16.584;2023-04-25T08:05:14;13.69;60.98
66576;SHT31;53428;47.686;16.584;2023-04-25T08:10:13;14.15;59.43
66576;SHT31;53428;47.686;16.584;2023-04-25T08:15:13;14.15;59.34
66576;SHT31;53428;47.686;16.584;2023-04-25T08:20:12;14.42;59.32
66576;SHT31;53428;47.686;16.584;2023-04-25T08:25:12;14.52;59.05
66576;SHT31;53428;47.686;16.584;2023-04-25T08:30:11;14.34;59.67
66576;SHT31;53428;47.686;16.584;2023-04-25T08:35:11;14.71;58.98
66576;SHT31;53428;47.686;16.584;2023-04-25T08:40:14;14.93;58.34
66576;SHT31;53428;47.686;16.584;2023-04-25T08:45:13;14.72;58.79
66576;SHT31;53428;47.686;16.584;2023-04-25T08:50:13;13.81;59.61
66576;SHT31;53428;47.686;16.584;2023-04-25T08:55:13;14.51;58.44
66576;SHT31;53428;47.686;16.584;2023-04-25T09:00:13;14.79;57.45
66576;SHT31;53428;47.686;16.584;2023-04-25T09:05:13;15.04;57.12
66576;SHT31;53428;47.686;16.584;2023-04-25T09:10:13;15.27;56.72
66576;SHT31;53428;47.686;16.584;2023-04-25T09:15:12;14.72;57.89
66576;SHT31;53428;47.686;16.584;2023-04-25T09:20:13;15.30;55.99
66576;SHT31;53428;47.686;16.584;2023-04-25T09:25:12;15.77;54.68
66576;SHT31;53428;47.686;16.584;2023-04-25T09:30:15;15.16;52.97
66576;SHT31;53428;47.686;16.584;2023-04-25T09:35:24;15.75;54.25
66576;SHT31;53428;47.686;16.584;2023-04-25T09:40:25;15.51;52.01
66576;SHT31;53428;47.686;16.584;2023-04-25T09:45:24;16.13;52.53
66576;SHT31;53428;47.686;16.584;2023-04-25T09:50:24;15.86;52.14
66576;SHT31;53428;47.686;16.584;2023-04-25T09:55:24;16.10;50.43
66576;SHT31;53428;47.686;16.584;2023-04-25T10:00:24;15.96;50.10
66576;SHT31;53428;47.686;16.584;2023-04-25T10:05:25;16.41;50.78
66576;SHT31;53428;47.686;16.584;2023-04-25T10:10:25;16.74;48.92
66576;SHT31;53428;47.686;16.584;2023-04-25T10:15:27;16.45;48.27
66576;SHT31;53428;47.686;16.584;2023-04-25T10:20:26;17.24;47.56
66576;SHT31;53428;47.686;16.584;2023-04-25T10:25:25;17.22;46.44
66576;SHT31;53428;47.686;16.584;2023-04-25T10:30:25;17.50;46.15
66576;SHT31;53428;47.686;16.584;2023-04-25T10:35:29;18.02;45.90
66576;SHT31;53428;47.686;16.584;2023-04-25T10:40:29;17.20;47.71
66576;SHT31;53428;47.686;16.584;2023-04-25T10:45:28;17.64;46.79
66576;SHT31;53428;47.686;16.584;2023-04-25T10:50:37;18.19;44.97
66576;SHT31;53428;47.686;16.584;2023-04-25T10:55:50;17.53;46.18
66576;SHT31;53428;47.686;16.584;2023-04-25T11:00:50;17.98;46.86
66576;SHT31;53428;47.686;16.584;2023-04-25T11:05:51;18.45;45.67
66576;SHT31;53428;47.686;16.584;2023-04-25T11:10:51;17.67;45.92
66576;SHT31;53428;47.686;16.584;2023-04-25T11:15:53;18.16;45.80
66576;SHT31;53428;47.686;16.584;2023-04-25T11:20:53;17.80;48.05
66576;SHT31;53428;47.686;16.584;2023-04-25T11:25:55;16.36;52.04
66576;SHT31;53428;47.686;16.584;2023-04-25T11:30:55;16.33;51.92
66576;SHT31;53428;47.686;16.584;2023-04-25T11:35:55;15.34;55.64
66576;SHT31;53428;47.686;16.584;2023-04-25T11:40:55;12.76;71.05
66576;SHT31;53428;47.686;16.584;2023-04-25T11:45:54;13.48;71.93
66576;SHT31;53428;47.686;16.584;2023-04-25T11:50:54;13.48;70.07
66576;SHT31;53428;47.686;16.584;2023-04-25T11:55:54;13.70;69.54
66576;SHT31;53428;47.686;16.584;2023-04-25T12:00:53;14.51;68.79
66576;SHT31;53428;47.686;16.584;2023-04-25T12:05:53;16.07;64.26
66576;SHT31;53428;47.686;16.584;2023-04-25T12:10:52;16.79;58.34
66576;SHT31;53428;47.686;16.584;2023-04-25T12:15:54;17.09;55.90
66576;SHT31;53428;47.686;16.584;2023-04-25T12:20:55;20.11;51.50
66576;SHT31;53428;47.686;16.584;2023-04-25T12:25:54;19.83;49.63
66576;SHT31;53428;47.686;16.584;2023-04-25T12:31:05;19.72;47.62
66576;SHT31;53428;47.686;16.584;2023-04-25T12:36:05;18.81;50.32
66576;SHT31;53428;47.686;16.584;2023-04-25T12:41:09;17.49;49.81
66576;SHT31;53428;47.686;16.584;2023-04-25T12:46:09;16.14;51.17
66576;SHT31;53428;47.686;16.584;2023-04-25T12:51:08;14.65;60.89
66576;SHT31;53428;47.686;16.584;2023-04-25T12:56:08;13.05;66.78
66576;SHT31;53428;47.686;16.584;2023-04-25T13:01:07;11.41;77.04
66576;SHT31;53428;47.686;16.584;2023-04-25T13:06:11;11.16;79.81
66576;SHT31;53428;47.686;16.584;2023-04-25T13:11:12;11.54;80.96
66576;SHT31;53428;47.686;16.584;2023-04-25T13:16:11;11.92;79.03
66576;SHT31;53428;47.686;16.584;2023-04-25T13:21:13;12.70;76.98
66576;SHT31;53428;47.686;16.584;2023-04-25T13:26:12;13.38;74.92
66576;SHT31;53428;47.686;16.584;2023-04-25T13:31:11;13.45;71.83
66576;SHT31;53428;47.686;16.584;2023-04-25T13:36:12;13.98;70.34
66576;SHT31;53428;47.686;16.584;2023-04-25T13:41:11;13.83;62.62
66576;SHT31;53428;47.686;16.584;2023-04-25T13:46:16;14.11;61.70
66576;SHT31;53428;47.686;16.584;2023-04-25T13:51:18;13.93;62.46
66576;SHT31;53428;47.686;16.584;2023-04-25T13:56:24;14.10;62.30
66576;SHT31;53428;47.686;16.584;2023-04-25T14:01:24;14.73;60.03
66576;SHT31;53428;47.686;16.584;2023-04-25T14:06:23;15.31;59.09
66576;SHT31;53428;47.686;16.584;2023-04-25T14:11:24;15.77;57.17
66576;SHT31;53428;47.686;16.584;2023-04-25T14:16:24;16.69;55.21
66576;SHT31;53428;47.686;16.584;2023-04-25T14:21:24;17.01;52.63
66576;SHT31;53428;47.686;16.584;2023-04-25T14:26:24;17.84;51.43
66576;SHT31;53428;47.686;16.584;2023-04-25T14:31:23;19.33;47.74
66576;SHT31;53428;47.686;16.584;2023-04-25T14:36:22;19.65;46.27
66576;SHT31;53428;47.686;16.584;2023-04-25T14:41:21;19.52;46.65
66576;SHT31;53428;47.686;16.584;2023-04-25T14:46:22;20.77;45.48
66576;SHT31;53428;47.686;16.584;2023-04-25T14:51:22;20.17;45.95
66576;SHT31;53428;47.686;16.584;2023-04-25T14:56:21;19.77;47.31
66576;SHT31;53428;47.686;16.584;2023-04-25T15:01:22;16.92;54.38
66576;SHT31;53428;47.686;16.584;2023-04-25T15:06:21;15.37;58.93
66576;SHT31;53428;47.686;16.584;2023-04-25T15:11:20;15.32;59.91
66576;SHT31;53428;47.686;16.584;2023-04-25T15:16:21;15.16;59.71
66576;SHT31;53428;47.686;16.584;2023-04-25T15:21:20;15.65;58.91
66576;SHT31;53428;47.686;16.584;2023-04-25T15:26:20;17.49;53.00
66576;SHT31;53428;47.686;16.584;2023-04-25T15:31:21;17.81;51.15
66576;SHT31;53428;47.686;16.584;2023-04-25T15:36:21;18.02;51.25
66576;SHT31;53428;47.686;16.584;2023-04-25T15:41:20;16.64;52.44
66576;SHT31;53428;47.686;16.584;2023-04-25T15:46:20;17.92;50.50
66576;SHT31;53428;47.686;16.584;2023-04-25T15:51:22;17.27;51.46
66576;SHT31;53428;47.686;16.584;2023-04-25T15:56:21;16.23;53.24
66576;SHT31;53428;47.686;16.584;2023-04-25T16:01:22;16.51;52.42
66576;SHT31;53428;47.686;16.584;2023-04-25T16:06:25;16.18;53.59
66576;SHT31;53428;47.686;16.584;2023-04-25T16:11:24;16.45;52.86
66576;SHT31;53428;47.686;16.584;2023-04-25T16:16:24;14.76;56.40
66576;SHT31;53428;47.686;16.584;2023-04-25T16:21:24;15.73;55.45
66576;SHT31;53428;47.686;16.584;2023-04-25T16:26:25;18.57;50.39
66576;SHT31;53428;47.686;16.584;2023-04-25T16:31:24;17.94;50.52
66576;SHT31;53428;47.686;16.584;2023-04-25T16:36:24;14.80;56.43
66576;SHT31;53428;47.686;16.584;2023-04-25T16:41:23;14.22;58.67
66576;SHT31;53428;47.686;16.584;2023-04-25T16:46:23;13.50;59.79
66576;SHT31;53428;47.686;16.584;2023-04-25T16:51:22;12.97;62.35
66576;SHT31;53428;47.686;16.584;2023-04-25T16:56:22;12.67;64.21
66576;SHT31;53428;47.686;16.584;2023-04-25T17:01:22;12.39;65.80
66576;SHT31;53428;47.686;16.584;2023-04-25T17:06:22;12.25;65.45
66576;SHT31;53428;47.686;16.584;2023-04-25T17:11:21;12.09;66.93
66576;SHT31;53428;47.686;16.584;2023-04-25T17:16:20;11.74;68.07
66576;SHT31;53428;47.686;16.584;2023-04-25T17:21:23;11.63;69.05
66576;SHT31;53428;47.686;16.584;2023-04-25T17:26:22;11.54;69.52
66576;SHT31;53428;47.686;16.584;2023-04-25T17:31:21;11.48;69.01
66576;SHT31;53428;47.686;16.584;2023-04-25T17:36:21;11.41;68.29
66576;SHT31;53428;47.686;16.584;2023-04-25T17:41:21;11.29;68.34
66576;SHT31;53428;47.686;16.584;2023-04-25T17:46:21;11.06;68.99
66576;SHT31;53428;47.686;16.584;2023-04-25T17:51:20;10.85;69.71
66576;SHT31;53428;47.686;16.584;2023-04-25T17:56:19;10.73;70.42
66576;SHT31;53428;47.686;16.584;2023-04-25T18:01:19;10.55;71.31
66576;SHT31;53428;47.686;16.584;2023-04-25T18:06:19;10.37;72.05
66576;SHT31;53428;47.686;16.584;2023-04-25T18:11:19;10.24;72.70
66576;SHT31;53428;47.686;16.584;2023-04-25T18:16:19;10.04;73.19
66576;SHT31;53428;47.686;16.584;2023-04-25T18:21:18;9.95;73.84
66576;SHT31;53428;47.686;16.584;2023-04-25T18:26:18;9.92;73.42
66576;SHT31;53428;47.686;16.584;2023-04-25T18:31:18;9.87;73.88
66576;SHT31;53428;47.686;16.584;2023-04-25T18:36:21;9.72;74.44
66576;SHT31;53428;47.686;16.584;2023-04-25T18:41:22;9.62;75.22
66576;SHT31;53428;47.686;16.584;2023-04-25T18:46:25;9.45;76.14
66576;SHT31;53428;47.686;16.584;2023-04-25T18:51:27;9.41;76.35
66576;SHT31;53428;47.686;16.584;2023-04-25T18:56:30;9.28;77.04
66576;SHT31;53428;47.686;16.584;2023-04-25T19:01:31;9.08;78.03
66576;SHT31;53428;47.686;16.584;2023-04-25T19:06:30;8.96;78.66
66576;SHT31;53428;47.686;16.584;2023-04-25T19:11:31;8.89;79.03
66576;SHT31;53428;47.686;16.584;2023-04-25T19:16:30;8.72;79.74
66576;SHT31;53428;47.686;16.584;2023-04-25T19:21:37;8.68;79.72
66576;SHT31;53428;47.686;16.584;2023-04-25T19:26:36;8.77;79.19
66576;SHT31;53428;47.686;16.584;2023-04-25T19:31:38;8.70;79.41
66576;SHT31;53428;47.686;16.584;2023-04-25T19:36:39;8.81;79.02
66576;SHT31;53428;47.686;16.584;2023-04-25T19:41:38;8.77;78.88
66576;SHT31;53428;47.686;16.584;2023-04-25T19:46:38;8.75;78.99
66576;SHT31;53428;47.686;16.584;2023-04-25T19:51:38;8.75;78.99
66576;SHT31;53428;47.686;16.584;2023-04-25T19:56:37;8.68;79.21
66576;SHT31;53428;47.686;16.584;2023-04-25T20:01:37;8.68;79.27
66576;SHT31;53428;47.686;16.584;2023-04-25T20:06:37;8.53;79.68
66576;SHT31;53428;47.686;16.584;2023-04-25T20:11:36;8.60;79.38
66576;SHT31;53428;47.686;16.584;2023-04-25T20:16:36;8.56;79.43
66576;SHT31;53428;47.686;16.584;2023-04-25T20:21:35;8.58;79.56
66576;SHT31;53428;47.686;16.584;2023-04-25T20:26:35;8.42;80.10
66576;SHT31;53428;47.686;16.584;2023-04-25T20:31:37;8.30;80.78
66576;SHT31;53428;47.686;16.584;2023-04-25T20:36:36;8.25;80.98
66576;SHT31;53428;47.686;16.584;2023-04-25T20:41:36;8.11;81.37
66576;SHT31;53428;47.686;16.584;2023-04-25T20:46:36;8.08;81.51
66576;SHT31;53428;47.686;16.584;2023-04-25T20:51:36;8.07;81.81
66576;SHT31;53428;47.686;16.584;2023-04-25T20:56:35;8.05;81.65
66576;SHT31;53428;47.686;16.584;2023-04-25T21:01:34;8.28;80.99
66576;SHT31;53428;47.686;16.584;2023-04-25T21:06:34;8.44;80.32
66576;SHT31;53428;47.686;16.584;2023-04-25T21:11:33;8.60;79.58
66576;SHT31;53428;47.686;16.584;2023-04-25T21:16:33;8.72;79.44
66576;SHT31;53428;47.686;16.584;2023-04-25T21:21:33;8.81;79.03
66576;SHT31;53428;47.686;16.584;2023-04-25T21:26:32;8.89;78.98
66576;SHT31;53428;47.686;16.584;2023-04-25T21:31:32;9.07;78.22
66576;SHT31;53428;47.686;16.584;2023-04-25T21:36:31;8.99;78.80
66576;SHT31;53428;47.686;16.584;2023-04-25T21:41:32;9.10;78.51
66576;SHT31;53428;47.686;16.584;2023-04-25T21:46:31;9.16;78.44
66576;SHT31;53428;47.686;16.584;2023-04-25T21:51:31;9.20;78.49
66576;SHT31;53428;47.686;16.584;2023-04-25T21:56:31;9.14;78.80
66576;SHT31;53428;47.686;16.584;2023-04-25T22:01:31;9.13;78.97
66576;SHT31;53428;47.686;16.584;2023-04-25T22:06:30;9.04;79.17
66576;SHT31;53428;47.686;16.584;2023-04-25T22:11:31;9.00;79.52
66576;SHT31;53428;47.686;16.584;2023-04-25T22:16:30;8.79;80.26
66576;SHT31;53428;47.686;16.584;2023-04-25T22:21:30;8.69;80.78
66576;SHT31;53428;47.686;16.584;2023-04-25T22:26:30;8.65;81.02
66576;SHT31;53428;47.686;16.584;2023-04-25T22:31:29;8.55;81.32
66576;SHT31;53428;47.686;16.584;2023-04-25T22:36:29;8.55;81.26
66576;SHT31;53428;47.686;16.584;2023-04-25T22:41:28;8.42;81.77
66576;SHT31;53428;47.686;16.584;2023-04-25T22:46:27;8.30;82.24
66576;SHT31;53428;47.686;16.584;2023-04-25T22:51:27;8.21;82.76
66576;SHT31;53428;47.686;16.584;2023-04-25T22:56:32;8.21;82.97
66576;SHT31;53428;47.686;16.584;2023-04-25T23:01:31;8.22;83.05
66576;SHT31;53428;47.686;16.584;2023-04-25T23:06:30;8.27;83.18
66576;SHT31;53428;47.686;16.584;2023-04-25T23:11:30;8.38;82.82
66576;SHT31;53428;47.686;16.584;2023-04-25T23:16:29;8.35;83.09
66576;SHT31;53428;47.686;16.584;2023-04-25T23:21:28;8.42;82.75
66576;SHT31;53428;47.686;16.584;2023-04-25T23:26:28;8.48;82.21
66576;SHT31;53428;47.686;16.584;2023-04-25T23:31:27;8.60;81.86
66576;SHT31;53428;47.686;16.584;2023-04-25T23:36:27;8.55;82.14
66576;SHT31;53428;47.686;16.584;2023-04-25T23:41:26;8.53;82.05
66576;SHT31;53428;47.686;16.584;2023-04-25T23:46:26;8.56;81.79
66576;SHT31;53428;47.686;16.584;2023-04-25T23:51:26;8.53;81.94
66576;SHT31;53428;47.686;16.584;2023-04-25T23:56:27;8.42;82.10
